This is the latest recevied weather packets stored in our database for station/object KE4BFX. If no packets are shown the sender has not sent any weather packets the latest 10 day(s).
| Time | Temp. | Humidity | Pressure | Rain* | Wind** | Luminosity | Snow |
|---|---|---|---|---|---|---|---|
| 1777610984 | 21.11° C | 87% | 1021.5 hPa | 0 mm | - | 0 W/m² | - |
| 1777605584 | 21.67° C | 85% | 1021.5 hPa | 0 mm | - | 0 W/m² | - |
| 1777598985 | 22.78° C | 82% | 1021.5 hPa | 0 mm | - | 0 W/m² | - |
| 1777596585 | 23.89° C | 80% | 1021.5 hPa | 0 mm | - | 0 W/m² | - |
| 1777595985 | 23.89° C | 79% | 1021.5 hPa | 0 mm | - | 0 W/m² | - |
| 1777593585 | 24.44° C | 77% | 1021.5 hPa | 0 mm | - | 21 W/m² | - |
| 1777592985 | 24.44° C | 77% | 1021.5 hPa | 0 mm | - | 65 W/m² | - |
| 1777592384 | 25° C | 76% | 1021.5 hPa | 0 mm | - | 98 W/m² | - |
| 1777583385 | 25.56° C | 75% | 1021.5 hPa | 0 mm | - | 250 W/m² | - |
| 1777575585 | 25.56° C | 78% | 1021.5 hPa | 0 mm | - | 399 W/m² | - |
| 1777572585 | 24.44° C | 80% | 1021.5 hPa | 0 mm | - | 608 W/m² | - |
| 1777567786 | 25.56° C | 74% | 1021.5 hPa | 0 mm | - | 237 W/m² | - |
| 1777562385 | 23.33° C | 82% | 1021.5 hPa | 0 mm | - | 323 W/m² | - |
| 1777554585 | 19.44° C | 91% | 1021.5 hPa | 0 mm | - | 127 W/m² | - |
| 1777551586 | 18.89° C | 91% | 1021.5 hPa | 0 mm | - | 123 W/m² | - |
| 1777548586 | 19.44° C | 91% | 1021.5 hPa | 0 mm | - | 11 W/m² | - |
| 1777545585 | 21.11° C | 91% | 1021.5 hPa | 0 mm | - | 0 W/m² | - |
| 1777543185 | 21.11° C | 91% | 1021.5 hPa | 0 mm | - | 0 W/m² | - |
| 1777541986 | 21.11° C | 91% | 1021.5 hPa | 0.25 mm | - | 0 W/m² | - |
| 1777539586 | 21.11° C | 91% | 1021.5 hPa | 0.25 mm | - | 0 W/m² | - |
| 1777537186 | 21.11° C | 91% | 1021.5 hPa | 0 mm | - | 0 W/m² | - |
| 1777534786 | 20.56° C | 91% | 1021.5 hPa | 0 mm | - | 0 W/m² | - |
| 1777530586 | 19.44° C | 90% | 1021.5 hPa | 0 mm | - | 0 W/m² | - |
| 1777528787 | 19.44° C | 90% | 1021.5 hPa | 0 mm | - | 0 W/m² | - |
| 1777522186 | 18.89° C | 89% | 1021.5 hPa | 0.25 mm | - | 0 W/m² | - |
* Rain latest hour (hover to see other rain measurements)
** Current wind speed in m/s (hover to see current wind gust speed)